LIPK

Forlì Airport

Airport
ICAO code
LIPK
IATA Code
FRL
Summary
ICAO Region
EUR
ICAO Territory
Location

Ronco, Emilia-Romagna

Serving
Forlì
Elevation
98 ft
Coordinates
44° 11' 43" N , 12° 4' 4" E
KCC
Metar
LIPK 210750Z 10007KT CAVOK 30/19 Q1008

Forlì International Airport, also known as Luigi Ridolfi Airport, is an airport in Forlì, a city in the Emilia-Romagna region of northern Italy.

Climatology

Humid subtropical climate (Köppen climate classification Cfa)

Runways

Designator Length Width Surface Rops
12/30 2410 45 ASP Yes/Yes

Airport map

Aerial View

SKYbrary Partners:

Safety knowledge contributed by: